map of AKL home
AKL - Airport
Location
City:  Auckland, Auckland (Tamaki-makau-rau), New Zealand
Name:Auckland International Airport
ICAO:NZAA
IATA:AKL

Details
Type:Airport (Aerodrome, Airfield)
Use:Public/Civil, International (customs port of entry)
Latitude:37°00'29"S (-37.008055)
Longitude:174°47'30"E (174.791667)
Elevation:23 ft (7 m)
Variation:19.87°E (WMM2015v2 magnetic declination)
0.05° annual change
Runways:2
Longest:11926 × 148 ft (3635 × 45 m), paved

Time
Time Zone:UTC+12 (DST+13)
Local Time:

Weather
METAR:NZAA 041400Z AUTO 00000KT 9999 NCD 18/17 Q1021 NOSIG
TAF:NZAA 041124Z 0412/0512 04005KT 9999 FEW045
BECMG 0501/0503 22010KT
BECMG 0507/0509 14005KT

Related Locations
Nearby:
Farthest:OZP: 12421 mi / 19989 km
Morón de la Frontera (Seville) [Morón AB], AN, ES

Find:

   beyond  
but within

Other Information
Maps:
NOTAMs:
Links:
Sources:

  
  • flag of New Zealand
  

Airport Diagram

Airport diagram for AKL

Larger airport diagram (OBSOLETE) from NGA

Sectional Chart

Flight Planning
at skyvector.com

Satellite Image

Google Maps Satellite view

 

Copyright © 2004-2019 Karl L. Swartz. All rights reserved.
The Great Circle Mapper name and logo are trademarks of the Great Circle Mapper.
All other trademarks mentioned herein belong to their respective owners.
Please see credits for attibutions and further copyright information.

  Follow gcmap on Facebook Follow gcmap on Twitter GCmap on LinkedIn

hCard Microformat

Geo Microformat